createdAt,value
2019-05-12T00:00:58.513Z,3.43
2019-05-12T00:03:30.417Z,4.70
2019-05-12T00:06:02.157Z,4.40
2019-05-12T00:08:33.861Z,3.37
2019-05-12T00:11:05.609Z,3.37
2019-05-12T00:13:38.526Z,4.30
2019-05-12T00:16:10.570Z,3.50
2019-05-12T00:18:42.372Z,4.07
2019-05-12T00:21:14.101Z,3.50
2019-05-12T00:24:04.049Z,4.07
2019-05-12T00:26:35.764Z,3.23
2019-05-12T00:29:07.790Z,3.67
2019-05-12T00:31:39.729Z,4.30
2019-05-12T00:34:11.448Z,3.80
2019-05-12T00:36:43.190Z,3.90
2019-05-12T00:39:14.990Z,3.33
2019-05-12T00:41:48.196Z,3.00
2019-05-12T00:44:20.132Z,3.13
2019-05-12T00:46:51.863Z,4.10
2019-05-12T00:49:23.640Z,4.60
2019-05-12T00:51:55.381Z,4.13
2019-05-12T00:54:28.407Z,4.10
2019-05-12T00:57:00.420Z,4.93
2019-05-12T00:59:32.129Z,4.87
2019-05-12T01:02:03.954Z,4.10
2019-05-12T01:04:38.012Z,4.03
2019-05-12T01:07:09.307Z,3.77
2019-05-12T01:09:41.013Z,4.87
2019-05-12T01:12:12.841Z,4.47
2019-05-12T01:14:44.561Z,4.50
2019-05-12T01:17:17.735Z,4.17
2019-05-12T01:19:49.835Z,3.20
2019-05-12T01:22:21.548Z,3.57
2019-05-12T01:24:53.256Z,3.93
2019-05-12T01:27:25.081Z,4.00
2019-05-12T01:29:58.097Z,3.23
2019-05-12T01:32:38.073Z,3.37
2019-05-12T01:35:09.741Z,3.80
2019-05-12T01:37:41.504Z,3.73
2019-05-12T01:40:13.616Z,4.03
2019-05-12T01:42:45.332Z,4.17
2019-05-12T01:45:18.053Z,3.60
2019-05-12T01:47:50.103Z,3.53
2019-05-12T01:50:21.897Z,3.60
2019-05-12T01:52:53.612Z,3.70
2019-05-12T01:55:25.332Z,3.57
2019-05-12T01:57:57.737Z,4.03
2019-05-12T02:00:29.957Z,4.70
2019-05-12T02:03:01.692Z,4.33
2019-05-12T02:05:34.210Z,3.83
2019-05-12T02:08:09.713Z,4.00
2019-05-12T02:10:41.537Z,3.97
2019-05-12T02:13:13.263Z,3.87
2019-05-12T02:15:44.976Z,3.50
2019-05-12T02:18:17.773Z,4.37
2019-05-12T02:20:49.750Z,4.23
2019-05-12T02:23:21.460Z,4.00
2019-05-12T02:25:53.294Z,3.80
2019-05-12T02:28:25.109Z,3.63
2019-05-12T02:30:58.938Z,3.47
2019-05-12T02:33:30.540Z,4.40
2019-05-12T02:36:04.737Z,3.40
2019-05-12T02:38:35.943Z,3.97
2019-05-12T02:41:07.749Z,3.77
2019-05-12T02:43:39.464Z,3.13
2019-05-12T02:46:11.277Z,2.63
2019-05-12T02:48:44.967Z,2.93
2019-05-12T02:51:16.710Z,4.13
2019-05-12T02:53:48.533Z,3.73
2019-05-12T02:56:25.464Z,3.83
2019-05-12T02:58:56.807Z,2.83
2019-05-12T03:01:29.728Z,3.17
2019-05-12T03:04:05.740Z,3.50
2019-05-12T03:06:38.269Z,3.23
2019-05-12T03:09:10.191Z,3.70
2019-05-12T03:11:44.833Z,5.77
2019-05-12T03:14:16.746Z,4.27
2019-05-12T03:16:48.565Z,3.00
2019-05-12T03:19:20.298Z,3.07
2019-05-12T03:21:54.617Z,4.20
2019-05-12T03:24:26.257Z,4.53
2019-05-12T03:26:58.073Z,3.80
2019-05-12T03:29:29.812Z,3.57
2019-05-12T03:32:06.544Z,3.43
2019-05-12T03:34:38.352Z,2.53
2019-05-12T03:37:09.157Z,3.07
2019-05-12T03:39:44.548Z,3.07
2019-05-12T03:42:14.939Z,2.77
2019-05-12T03:44:46.665Z,3.50
2019-05-12T03:47:18.367Z,3.37
2019-05-12T03:49:50.096Z,3.13
2019-05-12T03:52:24.425Z,3.60
2019-05-12T03:54:56.243Z,2.90
2019-05-12T03:57:28.091Z,2.93
2019-05-12T03:59:59.905Z,2.77
2019-05-12T04:02:34.065Z,3.13
2019-05-12T04:05:05.971Z,2.57
2019-05-12T04:07:37.786Z,2.13
2019-05-12T04:10:09.717Z,2.90
2019-05-12T04:12:44.610Z,2.80
2019-05-12T04:15:16.770Z,2.40
2019-05-12T04:17:48.573Z,2.77
2019-05-12T04:20:20.301Z,2.73
2019-05-12T04:22:54.470Z,2.93
2019-05-12T04:25:25.668Z,2.90
2019-05-12T04:27:57.408Z,3.03
2019-05-12T04:30:29.121Z,2.80
2019-05-12T04:33:00.852Z,3.00
2019-05-12T04:35:34.964Z,3.03
2019-05-12T04:38:06.196Z,2.63
2019-05-12T04:40:37.942Z,3.47
2019-05-12T04:43:09.725Z,2.60
2019-05-12T04:45:41.472Z,3.00
2019-05-12T04:48:15.662Z,2.60
2019-05-12T04:50:46.821Z,2.30
2019-05-12T04:53:18.541Z,2.87
2019-05-12T04:56:05.944Z,2.63
2019-05-12T04:58:25.558Z,2.50
2019-05-12T05:00:57.452Z,2.53
2019-05-12T05:03:29.261Z,2.63
2019-05-12T05:06:04.233Z,3.50
2019-05-12T05:08:35.020Z,2.50
2019-05-12T05:11:06.865Z,2.60
2019-05-12T05:13:39.809Z,3.07
2019-05-12T05:16:14.254Z,2.43
2019-05-12T05:18:45.355Z,3.63
2019-05-12T05:21:17.135Z,3.00
2019-05-12T05:23:48.934Z,2.77
2019-05-12T05:26:27.168Z,2.63
2019-05-12T05:28:54.395Z,3.03
2019-05-12T05:31:26.252Z,2.63
2019-05-12T05:33:57.962Z,2.90
2019-05-12T05:36:29.686Z,2.53
2019-05-12T05:39:03.844Z,2.73
2019-05-12T05:41:35.161Z,2.73
2019-05-12T05:44:07.003Z,2.43
2019-05-12T05:46:43.842Z,3.03
2019-05-12T05:49:13.353Z,4.27
2019-05-12T05:51:53.663Z,4.70
2019-05-12T05:54:22.662Z,4.13
2019-05-12T05:56:59.691Z,3.30
2019-05-12T05:59:31.155Z,3.10
2019-05-12T06:01:59.841Z,2.70
2019-05-12T06:04:33.913Z,3.93
2019-05-12T06:07:05.196Z,2.50
2019-05-12T06:09:36.936Z,3.03
2019-05-12T06:12:10.105Z,2.60
2019-05-12T06:14:46.699Z,2.57
2019-05-12T06:17:16.481Z,2.83
2019-05-12T06:19:48.203Z,2.93
2019-05-12T06:22:20.044Z,2.83
2019-05-12T06:24:56.890Z,2.93
2019-05-12T06:27:25.408Z,2.77
2019-05-12T06:30:00.932Z,3.67
2019-05-12T06:32:30.776Z,3.60
2019-05-12T06:35:04.545Z,3.00
2019-05-12T06:37:36.585Z,2.90
2019-05-12T06:40:08.812Z,2.70
2019-05-12T06:42:40.525Z,2.80
2019-05-12T06:45:14.104Z,2.93
2019-05-12T06:47:49.666Z,2.80
2019-05-12T06:50:19.712Z,3.10
2019-05-12T06:52:53.136Z,2.53
2019-05-12T06:55:28.656Z,3.27
2019-05-12T06:57:58.655Z,2.93
2019-05-12T07:00:32.061Z,2.80
2019-05-12T07:03:04.322Z,2.87
2019-05-12T07:05:38.548Z,2.50
2019-05-12T07:08:09.873Z,3.00
2019-05-12T07:10:44.305Z,2.77
2019-05-12T07:13:23.375Z,3.10
2019-05-12T07:15:48.829Z,2.90
2019-05-12T07:18:24.418Z,3.17
2019-05-12T07:20:55.687Z,2.77
2019-05-12T07:23:30.134Z,3.00
2019-05-12T07:26:05.076Z,2.30
2019-05-12T07:28:36.268Z,2.87
2019-05-12T07:31:08.626Z,2.80
2019-05-12T07:33:41.771Z,2.73
2019-05-12T07:36:15.684Z,3.03
2019-05-12T07:38:48.148Z,2.30
2019-05-12T07:41:23.569Z,2.85
2019-05-12T07:44:00.662Z,3.00
2019-05-12T07:46:29.815Z,3.00
2019-05-12T07:49:03.709Z,3.05
2019-05-12T07:51:36.326Z,2.70
2019-05-12T07:54:08.807Z,2.80
2019-05-12T07:56:41.183Z,2.60
2019-05-12T07:59:14.190Z,3.30
2019-05-12T08:01:51.893Z,2.87
2019-05-12T08:04:19.545Z,2.70
2019-05-12T08:06:53.659Z,2.87
2019-05-12T08:09:32.251Z,2.92
2019-05-12T08:11:58.498Z,2.92
2019-05-12T08:14:30.349Z,2.55
2019-05-12T08:17:10.994Z,6.47
2019-05-12T08:19:35.844Z,4.65
2019-05-12T08:22:07.701Z,2.33
2019-05-12T08:24:43.289Z,3.22
2019-05-12T08:27:14.319Z,2.33
2019-05-12T08:29:46.193Z,3.35
2019-05-12T08:32:20.039Z,3.08
2019-05-12T08:34:53.985Z,3.00
2019-05-12T08:37:25.313Z,2.20
2019-05-12T08:40:03.150Z,4.12
2019-05-12T08:42:30.773Z,1.98
2019-05-12T08:45:04.515Z,2.75
2019-05-12T08:47:38.891Z,2.83
2019-05-12T08:50:10.705Z,2.67
2019-05-12T08:52:44.198Z,2.72
2019-05-12T08:55:25.052Z,2.33
2019-05-12T08:57:54.178Z,2.52
2019-05-12T09:00:34.280Z,2.55
2019-05-12T09:03:06.401Z,3.02
2019-05-12T09:05:38.885Z,3.90
2019-05-12T09:08:13.629Z,2.27
2019-05-12T09:10:45.258Z,2.50
2019-05-12T09:13:17.111Z,5.10
2019-05-12T09:15:48.936Z,3.02
2019-05-12T09:18:20.836Z,2.70
2019-05-12T09:20:55.514Z,2.60
2019-05-12T09:23:26.260Z,1.75
2019-05-12T09:25:58.004Z,1.80
2019-05-12T09:28:43.605Z,2.50
2019-05-12T09:31:03.757Z,3.15
2019-05-12T09:33:35.638Z,3.05
2019-05-12T09:36:11.274Z,2.40
2019-05-12T09:38:41.177Z,3.90
2019-05-12T09:41:13.916Z,2.37
2019-05-12T09:43:50.256Z,2.25
2019-05-12T09:46:19.794Z,1.77
2019-05-12T09:48:52.984Z,1.90
2019-05-12T09:51:25.293Z,2.37
2019-05-12T09:53:57.089Z,2.75
2019-05-12T09:56:28.826Z,2.70
2019-05-12T09:59:04.759Z,1.98
2019-05-12T10:01:37.971Z,2.62
2019-05-12T10:04:10.338Z,2.17
2019-05-12T10:06:41.482Z,2.65
2019-05-12T10:09:15.424Z,2.20
2019-05-12T10:11:53.886Z,2.17
2019-05-12T10:14:20.546Z,2.35
2019-05-12T10:16:52.374Z,2.12
2019-05-12T10:19:24.177Z,2.25
2019-05-12T10:21:59.368Z,4.05
2019-05-12T10:24:32.766Z,2.27
2019-05-12T10:27:03.896Z,2.05
2019-05-12T10:29:36.004Z,2.10
2019-05-12T10:32:10.403Z,1.98
2019-05-12T10:34:41.380Z,2.15
2019-05-12T10:37:13.649Z,2.55
2019-05-12T10:39:45.368Z,1.72
2019-05-12T10:42:17.115Z,2.20
2019-05-12T10:44:48.920Z,2.12
2019-05-12T10:47:20.735Z,2.08
2019-05-12T10:49:53.873Z,2.22
2019-05-12T10:52:29.386Z,3.12
2019-05-12T10:54:59.432Z,2.22
2019-05-12T10:57:33.246Z,1.92
2019-05-12T11:00:06.094Z,1.82
2019-05-12T11:02:38.056Z,2.15
2019-05-12T11:05:12.472Z,2.10
2019-05-12T11:07:43.794Z,1.80
2019-05-12T11:10:19.840Z,3.12
2019-05-12T11:12:49.473Z,2.30
2019-05-12T11:15:21.302Z,3.47
2019-05-12T11:18:11.301Z,5.08
2019-05-12T11:20:45.059Z,2.58
2019-05-12T11:23:16.677Z,2.47
2019-05-12T11:25:48.382Z,4.05
2019-05-12T11:28:20.152Z,1.82
2019-05-12T11:30:51.872Z,1.80
2019-05-12T11:33:23.891Z,2.40
2019-05-12T11:35:55.780Z,2.10
2019-05-12T11:38:27.637Z,2.62
2019-05-12T11:40:59.393Z,1.90
2019-05-12T11:43:33.608Z,3.42
2019-05-12T11:46:04.964Z,2.05
2019-05-12T11:48:40.381Z,1.82
2019-05-12T11:51:10.504Z,2.20
2019-05-12T11:53:44.374Z,2.30
2019-05-12T11:56:16.008Z,2.75
2019-05-12T11:58:51.431Z,3.98
2019-05-12T12:01:24.337Z,2.45
2019-05-12T12:03:56.303Z,1.95
2019-05-12T12:06:28.076Z,2.45
2019-05-12T12:08:59.892Z,2.42
2019-05-12T12:11:31.766Z,1.95
2019-05-12T12:14:08.838Z,1.90
2019-05-12T12:16:41.884Z,2.15
2019-05-12T12:19:12.726Z,2.25
2019-05-12T12:21:48.111Z,1.95
2019-05-12T12:24:21.388Z,2.35
2019-05-12T12:26:53.757Z,2.02
2019-05-12T12:29:25.472Z,1.62
2019-05-12T12:31:57.280Z,2.35
2019-05-12T12:34:30.434Z,2.40
2019-05-12T12:37:03.272Z,2.12
2019-05-12T12:39:35.360Z,1.90
2019-05-12T12:42:07.097Z,2.77
2019-05-12T12:44:38.926Z,2.05
2019-05-12T12:47:10.730Z,1.45
2019-05-12T12:49:45.303Z,2.27
2019-05-12T12:52:16.084Z,1.75
2019-05-12T12:54:47.806Z,1.90
2019-05-12T12:57:19.517Z,1.77
2019-05-12T12:59:52.791Z,1.55
2019-05-12T13:02:24.935Z,1.75
2019-05-12T13:04:56.770Z,1.70
2019-05-12T13:07:28.516Z,1.10
2019-05-12T13:10:07.345Z,1.27
2019-05-12T13:12:35.795Z,1.17
2019-05-12T13:15:07.843Z,1.80
2019-05-12T13:17:41.845Z,1.95
2019-05-12T13:20:13.685Z,1.52
2019-05-12T13:22:45.450Z,1.55
2019-05-12T13:25:17.262Z,2.50
2019-05-12T13:27:48.970Z,1.60
2019-05-12T13:30:21.574Z,1.55
2019-05-12T13:32:54.577Z,2.10
2019-05-12T13:35:26.292Z,1.72
2019-05-12T13:38:00.412Z,1.93
2019-05-12T13:40:36.950Z,1.80
2019-05-12T13:43:09.151Z,1.63
2019-05-12T13:45:38.920Z,1.30
2019-05-12T13:48:15.903Z,2.03
2019-05-12T13:50:44.259Z,1.83
2019-05-12T13:53:15.953Z,1.43
2019-05-12T13:55:49.612Z,1.80
2019-05-12T13:58:21.542Z,1.40
2019-05-12T14:01:10.516Z,1.50
2019-05-12T14:03:28.007Z,1.77
2019-05-12T14:05:59.966Z,1.30
2019-05-12T14:08:34.143Z,1.00
2019-05-12T14:11:05.410Z,1.13
2019-05-12T14:13:37.122Z,1.13
2019-05-12T14:16:08.979Z,1.00
2019-05-12T14:18:40.716Z,1.20
2019-05-12T14:21:13.976Z,1.47
2019-05-12T14:23:45.909Z,1.03
2019-05-12T14:26:17.738Z,1.20
2019-05-12T14:28:49.767Z,1.30
2019-05-12T14:31:29.246Z,1.20
2019-05-12T14:33:55.345Z,1.23
2019-05-12T14:36:27.168Z,1.43
2019-05-12T14:39:00.289Z,1.63
2019-05-12T14:41:34.177Z,1.20
2019-05-12T14:44:06.056Z,1.43
2019-05-12T14:46:40.171Z,1.10
2019-05-12T14:49:11.421Z,0.77
2019-05-12T14:51:44.246Z,1.07
2019-05-12T14:54:16.260Z,1.37
2019-05-12T14:56:55.778Z,0.90
2019-05-12T14:59:23.732Z,0.90
2019-05-12T15:01:59.339Z,0.80
2019-05-12T15:04:29.931Z,0.80
2019-05-12T15:07:05.887Z,1.10
2019-05-12T15:09:35.652Z,0.97
2019-05-12T15:12:07.377Z,1.23
2019-05-12T15:14:39.137Z,1.10
2019-05-12T15:17:13.751Z,1.20
2019-05-12T15:19:44.517Z,1.03
2019-05-12T15:22:16.252Z,1.07
2019-05-12T15:24:49.287Z,1.83
2019-05-12T15:27:35.803Z,1.17
2019-05-12T15:29:58.341Z,0.97
2019-05-12T15:32:28.907Z,1.13
2019-05-12T15:35:00.703Z,1.00
2019-05-12T15:37:34.983Z,1.10
2019-05-12T15:40:07.010Z,1.10
2019-05-12T15:42:38.832Z,1.00
2019-05-12T15:45:12.895Z,0.87
2019-05-12T15:47:44.882Z,1.07
2019-05-12T15:50:17.159Z,1.03
2019-05-12T15:52:48.979Z,1.20
2019-05-12T15:55:25.536Z,1.00
2019-05-12T15:57:54.465Z,1.47
2019-05-12T16:00:26.364Z,1.30
2019-05-12T16:02:58.091Z,1.10
2019-05-12T16:05:31.183Z,1.27
2019-05-12T16:08:04.157Z,1.33
2019-05-12T16:10:36.139Z,1.50
2019-05-12T16:13:07.861Z,1.23
2019-05-12T16:15:39.624Z,1.10
2019-05-12T16:18:11.485Z,0.97
2019-05-12T16:20:44.192Z,1.13
2019-05-12T16:23:28.030Z,1.20
2019-05-12T16:25:49.769Z,1.20
2019-05-12T16:28:25.948Z,1.33
2019-05-12T16:30:58.982Z,0.80
2019-05-12T16:33:28.837Z,0.90
2019-05-12T16:36:06.701Z,1.23
2019-05-12T16:38:34.173Z,1.27
2019-05-12T16:41:05.886Z,1.10
2019-05-12T16:43:37.608Z,1.10
2019-05-12T16:46:09.352Z,0.87
2019-05-12T16:48:42.277Z,1.40
2019-05-12T16:51:14.766Z,1.20
2019-05-12T16:53:46.497Z,1.83
2019-05-12T16:56:19.944Z,1.10
2019-05-12T16:58:54.021Z,1.10
2019-05-12T17:01:29.217Z,1.20
2019-05-12T17:03:59.097Z,1.17
2019-05-12T17:06:34.978Z,1.40
2019-05-12T17:09:06.264Z,1.47
2019-05-12T17:11:47.141Z,1.37
2019-05-12T17:14:11.816Z,1.30
2019-05-12T17:16:46.717Z,1.30
2019-05-12T17:19:17.145Z,1.30
2019-05-12T17:21:55.497Z,1.57
2019-05-12T17:24:23.891Z,1.83
2019-05-12T17:26:55.905Z,2.17
2019-05-12T17:29:27.758Z,2.10
2019-05-12T17:31:59.484Z,2.77
2019-05-12T17:34:33.785Z,2.07
2019-05-12T17:37:04.987Z,2.30
2019-05-12T17:39:39.161Z,1.70
2019-05-12T17:42:13.210Z,1.53
2019-05-12T17:44:44.580Z,1.40
2019-05-12T17:47:21.899Z,2.23
2019-05-12T17:49:50.141Z,1.70
2019-05-12T17:52:23.458Z,2.67
2019-05-12T17:55:04.583Z,1.30
2019-05-12T17:57:28.935Z,2.37
2019-05-12T18:00:06.193Z,1.23
2019-05-12T18:02:34.475Z,1.43
2019-05-12T18:05:11.918Z,1.73
2019-05-12T18:07:40.414Z,1.20
2019-05-12T18:10:13.512Z,1.20
2019-05-12T18:12:46.357Z,1.33
2019-05-12T18:15:23.359Z,1.27
2019-05-12T18:17:53.340Z,1.07
2019-05-12T18:20:25.350Z,2.10
2019-05-12T18:22:57.187Z,2.53
2019-05-12T18:25:30.676Z,2.10
2019-05-12T18:28:03.767Z,2.30
2019-05-12T18:30:35.985Z,1.70
2019-05-12T18:33:09.513Z,1.23
2019-05-12T18:35:44.063Z,1.40
2019-05-12T18:38:21.579Z,1.00
2019-05-12T18:40:50.091Z,1.27
2019-05-12T18:43:24.113Z,1.57
2019-05-12T18:46:04.863Z,1.97
2019-05-12T18:48:29.668Z,1.80
2019-05-12T18:51:05.056Z,2.37
2019-05-12T18:53:35.273Z,2.90
2019-05-12T18:56:10.376Z,3.10
2019-05-12T18:58:40.974Z,2.77
2019-05-12T19:01:14.112Z,4.50
2019-05-12T19:03:50.712Z,3.40
2019-05-12T19:06:19.946Z,4.00
2019-05-12T19:08:53.799Z,2.77
2019-05-12T19:11:31.735Z,4.60
2019-05-12T19:13:59.148Z,4.00
2019-05-12T19:16:30.925Z,4.20
2019-05-12T19:19:04.366Z,4.53
2019-05-12T19:21:36.467Z,4.90
2019-05-12T19:24:08.847Z,4.80
2019-05-12T19:26:43.968Z,4.73
2019-05-12T19:29:15.696Z,5.70
2019-05-12T19:31:52.587Z,6.00
2019-05-12T19:34:25.291Z,5.27
2019-05-12T19:36:56.969Z,8.17
2019-05-12T19:39:28.791Z,7.03
2019-05-12T19:42:00.613Z,7.50
2019-05-12T19:44:34.249Z,5.93
2019-05-12T19:47:06.040Z,6.83
2019-05-12T19:49:47.644Z,6.17
2019-05-12T19:52:13.810Z,4.93
2019-05-12T19:54:45.169Z,4.80
2019-05-12T19:57:22.006Z,4.03
2019-05-12T19:59:52.583Z,3.13
2019-05-12T20:02:25.045Z,2.53
2019-05-12T20:04:56.923Z,2.93
2019-05-12T20:07:28.833Z,2.20
2019-05-12T20:10:00.935Z,3.07
2019-05-12T20:12:34.272Z,3.40
2019-05-12T20:15:06.661Z,3.67
2019-05-12T20:17:38.388Z,3.83
2019-05-12T20:20:10.427Z,2.93
2019-05-12T20:22:44.124Z,3.40
2019-05-12T20:25:15.882Z,3.40
2019-05-12T20:27:47.618Z,3.10
2019-05-12T20:30:21.106Z,2.63
2019-05-12T20:32:54.045Z,2.80
2019-05-12T20:35:26.063Z,2.60
2019-05-12T20:37:57.885Z,2.77
2019-05-12T20:40:32.220Z,2.43
2019-05-12T20:43:08.352Z,2.80
2019-05-12T20:45:40.845Z,2.70
2019-05-12T20:48:10.513Z,2.13
2019-05-12T20:50:43.535Z,2.20
2019-05-12T20:53:15.448Z,2.30
2019-05-12T20:55:47.144Z,2.40
2019-05-12T20:58:18.902Z,2.10
2019-05-12T21:00:50.612Z,2.33
2019-05-12T21:03:24.220Z,1.83
2019-05-12T21:06:01.465Z,2.50
2019-05-12T21:08:29.660Z,2.17
2019-05-12T21:11:01.457Z,2.17
2019-05-12T21:13:34.523Z,3.33
2019-05-12T21:16:16.588Z,3.23
2019-05-12T21:18:47.863Z,3.37
2019-05-12T21:21:14.317Z,3.90
2019-05-12T21:23:53.821Z,2.70
2019-05-12T21:26:20.964Z,2.43
2019-05-12T21:28:53.911Z,2.40
2019-05-12T21:31:30.820Z,3.03
2019-05-12T21:33:59.771Z,2.40
2019-05-12T21:36:33.894Z,2.77
2019-05-12T21:39:10.313Z,2.50
2019-05-12T21:41:40.672Z,2.57
2019-05-12T21:44:14.061Z,2.40
2019-05-12T21:46:57.454Z,2.37
2019-05-12T21:49:19.961Z,1.90
2019-05-12T21:51:58.999Z,2.03
2019-05-12T21:54:29.437Z,2.03
2019-05-12T21:56:58.913Z,2.00
2019-05-12T21:59:37.698Z,2.43
2019-05-12T22:02:04.451Z,2.27
2019-05-12T22:04:41.263Z,1.97
2019-05-12T22:07:10.256Z,2.10
2019-05-12T22:09:46.869Z,2.07
2019-05-12T22:12:15.574Z,1.63
2019-05-12T22:14:47.301Z,2.33
2019-05-12T22:17:19.004Z,2.17
2019-05-12T22:19:50.729Z,1.93
2019-05-12T22:22:25.765Z,2.03
2019-05-12T22:24:56.049Z,2.03
2019-05-12T22:27:30.836Z,2.10
2019-05-12T22:30:01.401Z,1.90
2019-05-12T22:32:33.220Z,1.93
2019-05-12T22:35:05.085Z,1.70
2019-05-12T22:37:36.798Z,2.07
2019-05-12T22:40:15.188Z,2.13
2019-05-12T22:42:44.382Z,1.70
2019-05-12T22:45:16.129Z,1.67
2019-05-12T22:47:49.233Z,1.70
2019-05-12T22:50:21.469Z,1.63
2019-05-12T22:52:53.381Z,1.67
2019-05-12T22:55:30.713Z,1.77
2019-05-12T22:57:58.744Z,1.77
2019-05-12T23:00:30.660Z,1.47
2019-05-12T23:03:07.209Z,1.53
2019-05-12T23:05:36.198Z,1.40
2019-05-12T23:08:08.542Z,1.50
2019-05-12T23:10:41.436Z,3.13
2019-05-12T23:13:14.137Z,1.23
2019-05-12T23:15:49.352Z,0.97
2019-05-12T23:18:28.664Z,1.77
2019-05-12T23:20:54.561Z,1.40
2019-05-12T23:23:26.283Z,2.33
2019-05-12T23:26:00.570Z,1.67
2019-05-12T23:28:33.638Z,1.80
2019-05-12T23:31:05.315Z,1.53
2019-05-12T23:33:37.032Z,1.70
2019-05-12T23:36:09.639Z,1.57
2019-05-12T23:38:44.017Z,1.57
2019-05-12T23:41:15.973Z,1.90
2019-05-12T23:43:47.720Z,1.90
2019-05-12T23:46:19.513Z,1.80
2019-05-12T23:48:51.240Z,1.50
2019-05-12T23:51:23.590Z,1.40
2019-05-12T23:53:55.549Z,1.50
2019-05-12T23:56:27.240Z,1.83
2019-05-12T23:58:58.981Z,1.70
